Terminal Aerodrome Forecast
Issued by NWS Mt. Holly, NJ

Home | Current Version | Previous Version | Text Only | Print | Product List | Glossary On
Versions: 1 2 3 4 5 6 7 8 9 10 11 12 13
000
FTUS41 KPHI 262320
TAFRDG
TAF
KRDG 262320Z 2700/2724 36003KT P6SM SCT040 OVC080
     FM270800 33003KT P6SM SCT025 OVC040
      TEMPO 2708/2712 5SM -SHSN OVC025
     FM271400 33008KT P6SM BKN040
     FM272300 31006KT P6SM SCT045=

USA.gov is the U.S. government's official web portal to all federal, state and local government web resources and services.